To NAV CANADA Home Page Login to a new session Search on AWWS site Disclaimer Vers la page française équivalente Tips FAQ What's new on the site To the Forecasts and Observations / NOTAM section To "File a Flight Plan" website Publications and other links Update of the User's profile FIC Telephone Numbers My Weather Data Folder Route Weather Data Regional Weather Data Local Weather Data To the Forecasts and Observations / NOTAM section
Request Generated 10/27/2020 at 09:59:51 UTC . Weather information available at that time is displayed.

METAR/TAF

If you find any discrepancies between the coded METAR/TAF and the plain language METAR/TAF please use the coded METAR/TAF. LWIS bulletins are not decoded in plain language.

TORONTO/BILLY BISHOP TORONTO CITY AIRPORT/ON    (show WxCam)

METAR CYTZ 270900Z AUTO 32004KT 9SM OVC120 06/02 A3024 RMK SLP243=
METAR
LOCATION
CYTZ - TORONTO/BILLY BISHOP TORONTO CITY A
DATE - TIME
27 OCTOBER 2020 - 0900 UTC
WIND
320 TRUE @ 4  KNOTS
VISIBILITY
9 STAT.  MILES
RUNWAY VISUAL RANGE
WEATHER
CLOUDINESS
OVERCAST 12000  FT
TEMP / DEWPOINT
6 C / 2 C
ALTIMETER
30.24 IN HG
RECENT WEATHER
WIND SHEAR

METAR CYTZ 270800Z AUTO 33004KT 300V010 9SM OVC110 07/02 A3023 RMK SLP240=
METAR
LOCATION
CYTZ - TORONTO/BILLY BISHOP TORONTO CITY A
DATE - TIME
27 OCTOBER 2020 - 0800 UTC
WIND
330 TRUE @ 4  KNOTS
VARIATION
300 <-> 10  DEG
VISIBILITY
9 STAT.  MILES
RUNWAY VISUAL RANGE
WEATHER
CLOUDINESS
OVERCAST 11000  FT
TEMP / DEWPOINT
7 C / 2 C
ALTIMETER
30.23 IN HG
RECENT WEATHER
WIND SHEAR

METAR CYTZ 270700Z AUTO 29006KT 9SM OVC120 07/03 A3024 RMK SLP244=
METAR
LOCATION
CYTZ - TORONTO/BILLY BISHOP TORONTO CITY A
DATE - TIME
27 OCTOBER 2020 - 0700 UTC
WIND
290 TRUE @ 6  KNOTS
VISIBILITY
9 STAT.  MILES
RUNWAY VISUAL RANGE
WEATHER
CLOUDINESS
OVERCAST 12000  FT
TEMP / DEWPOINT
7 C / 3 C
ALTIMETER
30.24 IN HG
RECENT WEATHER
WIND SHEAR

TAF CYTZ 270739Z 2708/2808 29006KT P6SM BKN120 PROB30 2709/2713 1SM BR FM271500 03008KT P6SM BKN030 OVC080 TEMPO 2715/2718 BKN020 OVC080 FM271800 23010KT P6SM -SHRA OVC025 TEMPO 2718/2722 4SM -SHRA BR OVC020 FM272200 25012KT P6SM SCT020 BKN030 FM280300 25008KT P6SM SCT020 RMK FCST BASED ON AUTO OBS. NXT FCST BY 271400Z=
TAF
LOCATION

CYTZ - TORONTO/BILLY BISHOP TORONTO CITY AIRPORT/ON
VALIDITY [UTC]
27 OCT - 0739 to
28 OCT - 0800
 
TIMES
[UTC]
WIND
[DEGREES TRUE]
VISIBILITY
[STAT. MILES]
WEATHER
CLOUDINESS
[FEET AGL]
 
27 OCT - 0800 to
27 OCT - 1500
290 @ 6 KNOTS
6+
NIL
12000 BROKEN
30% PROBABILITY
27 OCT - 0900 to
27 OCT - 1300
 
1
MIST
 
 
27 OCT - 1500 to
27 OCT - 1800
30 @ 8 KNOTS
6+
NIL
3000 BROKEN
8000 OVERCAST
TEMPORARY CHANGES
27 OCT - 1500 to
27 OCT - 1800
 
 
 
2000 BROKEN
8000 OVERCAST
 
27 OCT - 1800 to
27 OCT - 2200
230 @ 10 KNOTS
6+
LIGHT RAIN SHOWER
2500 OVERCAST
TEMPORARY CHANGES
27 OCT - 1800 to
27 OCT - 2200
 
4
LIGHT RAIN SHOWER
MIST
2000 OVERCAST
 
27 OCT - 2200 to
28 OCT - 0300
250 @ 12 KNOTS
6+
NIL
2000 SCATTERED
3000 BROKEN
 
28 OCT - 0300 to
28 OCT - 0800
250 @ 8 KNOTS
6+
NIL
2000 SCATTERED
REMARKS
THE FORECAST IS BASED ON AUTOMATIC OBSERVATIONS - THE NEXT FORECAST WILL BE ISSUED BY 1400 UTC ON DAY 27


Your time UTC time
Weather data provided by Environment Canada and NAV CANADA